createdAt,value
2022-09-14T00:00:23.171Z,1.67
2022-09-14T00:03:09.731Z,1.70
2022-09-14T00:05:56.260Z,1.50
2022-09-14T00:08:43.554Z,1.27
2022-09-14T00:11:32.225Z,1.80
2022-09-14T00:14:20.787Z,1.63
2022-09-14T00:17:07.430Z,1.43
2022-09-14T00:19:54.392Z,1.30
2022-09-14T00:22:41.166Z,2.00
2022-09-14T00:25:27.645Z,1.73
2022-09-14T00:28:14.280Z,1.97
2022-09-14T00:31:04.243Z,1.77
2022-09-14T00:33:52.347Z,1.40
2022-09-14T00:36:41.492Z,1.53
2022-09-14T00:39:29.122Z,1.50
2022-09-14T00:42:19.491Z,1.90
2022-09-14T00:45:12.328Z,1.60
2022-09-14T00:48:00.090Z,2.30
2022-09-14T00:50:47.192Z,1.90
2022-09-14T00:53:33.968Z,1.77
2022-09-14T00:56:21.035Z,1.60
2022-09-14T00:59:13.637Z,2.20
2022-09-14T01:02:00.302Z,1.77
2022-09-14T01:04:49.402Z,1.77
2022-09-14T01:07:58.392Z,2.03
2022-09-14T01:10:56.602Z,2.00
2022-09-14T01:13:50.854Z,2.20
2022-09-14T01:16:45.343Z,1.97
2022-09-14T01:19:44.239Z,1.97
2022-09-14T01:22:38.883Z,2.20
2022-09-14T01:25:42.903Z,2.20
2022-09-14T01:28:36.619Z,2.07
2022-09-14T01:31:30.183Z,2.23
2022-09-14T01:34:24.107Z,2.23
2022-09-14T01:37:15.482Z,2.13
2022-09-14T01:40:08.274Z,2.07
2022-09-14T01:42:59.337Z,1.97
2022-09-14T01:45:52.113Z,2.00
2022-09-14T01:48:44.324Z,2.17
2022-09-14T01:51:41.144Z,1.70
2022-09-14T01:54:31.913Z,2.00
2022-09-14T01:57:24.352Z,2.10
2022-09-14T02:00:16.309Z,1.90
2022-09-14T02:03:11.889Z,2.00
2022-09-14T02:06:03.651Z,2.07
2022-09-14T02:08:51.031Z,1.70
2022-09-14T02:11:38.015Z,2.10
2022-09-14T02:14:24.965Z,2.03
2022-09-14T02:17:11.290Z,1.60
2022-09-14T02:20:01.209Z,1.67
2022-09-14T02:22:47.967Z,2.00
2022-09-14T02:25:36.360Z,1.87
2022-09-14T02:28:23.052Z,1.70
2022-09-14T02:31:18.726Z,2.00
2022-09-14T02:34:11.027Z,1.70
2022-09-14T02:37:03.086Z,2.10
2022-09-14T02:40:00.242Z,1.63
2022-09-14T02:42:52.980Z,1.80
2022-09-14T02:45:46.030Z,1.90
2022-09-14T02:48:38.604Z,1.93
2022-09-14T02:51:31.628Z,1.80
2022-09-14T02:54:23.719Z,1.53
2022-09-14T02:57:11.999Z,1.80
2022-09-14T02:59:58.312Z,1.73
2022-09-14T03:02:44.687Z,2.00
2022-09-14T03:05:31.103Z,1.60
2022-09-14T03:08:17.632Z,1.93
2022-09-14T03:11:06.431Z,1.60
2022-09-14T03:13:53.093Z,2.17
2022-09-14T03:16:40.270Z,1.90
2022-09-14T03:19:26.679Z,1.80
2022-09-14T03:22:12.984Z,1.67
2022-09-14T03:24:59.411Z,1.73
2022-09-14T03:27:50.377Z,1.83
2022-09-14T03:30:36.904Z,1.87
2022-09-14T03:33:23.566Z,1.60
2022-09-14T03:36:15.044Z,1.90
2022-09-14T03:39:02.787Z,1.77
2022-09-14T03:41:49.227Z,1.83
2022-09-14T03:44:36.897Z,2.10
2022-09-14T03:47:23.446Z,1.90
2022-09-14T03:50:11.836Z,2.17
2022-09-14T03:52:58.447Z,1.80
2022-09-14T03:55:45.120Z,2.20
2022-09-14T03:58:33.021Z,1.97
2022-09-14T04:01:23.340Z,2.10
2022-09-14T04:04:09.905Z,2.00
2022-09-14T04:06:56.514Z,1.73
2022-09-14T04:09:43.471Z,1.90
2022-09-14T04:12:30.227Z,2.10
2022-09-14T04:15:16.664Z,2.10
2022-09-14T04:18:04.968Z,1.70
2022-09-14T04:20:56.394Z,2.10
2022-09-14T04:24:03.415Z,1.60
2022-09-14T04:26:49.356Z,1.80
2022-09-14T04:29:35.753Z,1.73
2022-09-14T04:32:22.208Z,2.27
2022-09-14T04:35:10.591Z,2.00
2022-09-14T04:37:56.924Z,1.90
2022-09-14T04:40:43.339Z,1.87
2022-09-14T04:43:29.780Z,2.20
2022-09-14T04:46:18.622Z,2.30
2022-09-14T04:49:05.372Z,1.87
2022-09-14T04:51:53.876Z,2.40
2022-09-14T04:54:40.295Z,2.30
2022-09-14T04:57:26.879Z,2.23
2022-09-14T05:00:14.384Z,2.20
2022-09-14T05:03:01.047Z,2.33
2022-09-14T05:05:47.828Z,2.00
2022-09-14T05:08:36.624Z,2.50
2022-09-14T05:11:24.553Z,2.33
2022-09-14T05:14:13.225Z,2.20
2022-09-14T05:17:02.868Z,2.57
2022-09-14T05:19:49.487Z,2.43
2022-09-14T05:22:35.782Z,2.63
2022-09-14T05:25:23.442Z,2.40
2022-09-14T05:28:10.119Z,2.53
2022-09-14T05:30:57.080Z,2.17
2022-09-14T05:33:43.935Z,2.90
2022-09-14T05:36:30.632Z,2.23
2022-09-14T05:39:21.020Z,2.70
2022-09-14T05:42:11.121Z,2.73
2022-09-14T05:44:57.327Z,2.63
2022-09-14T05:47:43.831Z,2.77
2022-09-14T05:50:30.222Z,2.30
2022-09-14T05:53:16.436Z,3.00
2022-09-14T05:56:04.239Z,2.87
2022-09-14T05:58:52.431Z,2.87
2022-09-14T06:01:38.839Z,3.00
2022-09-14T06:04:25.775Z,2.70
2022-09-14T06:07:18.899Z,2.90
2022-09-14T06:10:06.677Z,2.73
2022-09-14T06:12:55.480Z,2.80
2022-09-14T06:15:43.880Z,3.30
2022-09-14T06:18:32.472Z,3.00
2022-09-14T06:21:22.193Z,3.13
2022-09-14T06:24:08.643Z,3.10
2022-09-14T06:26:54.987Z,2.80
2022-09-14T06:29:41.344Z,2.43
2022-09-14T06:32:31.766Z,2.87
2022-09-14T06:35:18.362Z,3.27
2022-09-14T06:38:05.037Z,3.00
2022-09-14T06:40:56.965Z,3.27
2022-09-14T06:43:43.871Z,3.37
2022-09-14T06:46:31.986Z,3.30
2022-09-14T06:49:23.004Z,3.30
2022-09-14T06:52:09.323Z,3.33
2022-09-14T06:54:55.704Z,2.93
2022-09-14T06:57:43.139Z,3.07
2022-09-14T07:00:30.248Z,3.70
2022-09-14T07:03:16.985Z,2.90
2022-09-14T07:06:07.377Z,3.00
2022-09-14T07:08:54.449Z,2.43
2022-09-14T07:11:42.171Z,2.50
2022-09-14T07:14:32.250Z,2.80
2022-09-14T07:17:19.911Z,2.50
2022-09-14T07:20:07.893Z,2.67
2022-09-14T07:22:56.547Z,2.57
2022-09-14T07:25:43.035Z,2.10
2022-09-14T07:28:29.506Z,2.40
2022-09-14T07:31:18.770Z,2.03
2022-09-14T07:34:06.473Z,2.20
2022-09-14T07:36:52.881Z,2.13
2022-09-14T07:39:40.600Z,2.40
2022-09-14T07:42:27.012Z,3.27
2022-09-14T07:45:13.493Z,2.40
2022-09-14T07:48:00.768Z,2.50
2022-09-14T07:50:47.700Z,2.80
2022-09-14T07:53:38.299Z,2.27
2022-09-14T07:56:26.073Z,2.43
2022-09-14T08:02:23.392Z,2.33
2022-09-14T08:05:11.216Z,2.50
2022-09-14T08:07:57.765Z,3.40
2022-09-14T08:10:44.355Z,2.83
2022-09-14T08:13:32.808Z,2.57
2022-09-14T08:16:20.198Z,2.63
2022-09-14T08:19:10.821Z,2.63
2022-09-14T08:21:57.888Z,2.63
2022-09-14T08:24:44.531Z,2.37
2022-09-14T08:27:31.191Z,2.27
2022-09-14T08:30:19.366Z,2.10
2022-09-14T08:33:05.687Z,2.57
2022-09-14T08:35:59.572Z,2.83
2022-09-14T08:38:46.433Z,2.90
2022-09-14T08:41:36.720Z,2.27
2022-09-14T08:44:28.292Z,2.73
2022-09-14T08:47:20.311Z,3.17
2022-09-14T08:50:13.284Z,1.93
2022-09-14T08:53:01.207Z,2.00
2022-09-14T08:55:51.574Z,1.97
2022-09-14T08:58:53.193Z,1.83
2022-09-14T09:01:49.580Z,1.90
2022-09-14T09:04:52.805Z,1.73
2022-09-14T09:07:48.846Z,1.67
2022-09-14T09:10:38.968Z,1.70
2022-09-14T09:13:30.345Z,1.67
2022-09-14T09:16:20.930Z,1.80
2022-09-14T09:19:12.981Z,1.67
2022-09-14T09:22:03.876Z,1.77
2022-09-14T09:24:54.732Z,1.50
2022-09-14T09:27:41.521Z,1.50
2022-09-14T09:30:29.475Z,1.53
2022-09-14T09:33:18.463Z,1.30
2022-09-14T09:36:08.649Z,1.37
2022-09-14T09:38:56.681Z,1.53
2022-09-14T09:41:47.459Z,1.40
2022-09-14T09:44:59.275Z,1.50
2022-09-14T09:47:48.493Z,1.10
2022-09-14T09:50:34.928Z,1.87
2022-09-14T09:53:24.206Z,1.30
2022-09-14T09:56:19.108Z,1.30
2022-09-14T09:59:23.794Z,1.30
2022-09-14T10:02:27.686Z,1.33
2022-09-14T10:05:23.479Z,1.40
2022-09-14T10:08:19.081Z,1.40
2022-09-14T10:11:05.830Z,1.43
2022-09-14T10:13:53.702Z,1.63
2022-09-14T10:16:42.114Z,1.30
2022-09-14T10:19:30.564Z,1.43
2022-09-14T10:22:27.118Z,1.63
2022-09-14T10:25:23.426Z,1.03
2022-09-14T10:28:21.876Z,1.10
2022-09-14T10:31:25.980Z,1.60
2022-09-14T10:34:21.644Z,1.30
2022-09-14T10:37:25.633Z,1.50
2022-09-14T10:40:17.523Z,1.17
2022-09-14T10:43:14.330Z,1.20
2022-09-14T10:46:05.679Z,1.37
2022-09-14T10:49:31.875Z,1.27
2022-09-14T10:52:27.278Z,2.77
2022-09-14T10:55:32.196Z,1.97
2022-09-14T10:58:31.032Z,1.20
2022-09-14T11:01:29.488Z,1.70
2022-09-14T11:04:42.045Z,1.30
2022-09-14T11:07:38.587Z,1.60
2022-09-14T11:10:31.129Z,1.63
2022-09-14T11:13:48.102Z,1.27
2022-09-14T11:17:06.430Z,1.43
2022-09-14T11:20:01.678Z,1.70
2022-09-14T11:22:56.872Z,0.93
2022-09-14T11:25:47.980Z,1.57
2022-09-14T11:28:39.944Z,1.30
2022-09-14T11:31:30.086Z,0.93
2022-09-14T11:34:21.848Z,1.37
2022-09-14T11:37:11.915Z,0.80
2022-09-14T11:40:08.070Z,1.20
2022-09-14T11:43:00.061Z,1.03
2022-09-14T11:45:49.674Z,1.20
2022-09-14T11:48:43.215Z,1.20
2022-09-14T11:51:35.487Z,1.37
2022-09-14T11:54:24.568Z,1.20
2022-09-14T11:57:18.620Z,1.30
2022-09-14T12:00:12.409Z,0.87
2022-09-14T12:03:02.628Z,2.40
2022-09-14T12:05:50.450Z,1.50
2022-09-14T12:08:41.562Z,1.03
2022-09-14T12:11:34.705Z,1.33
2022-09-14T12:14:32.831Z,1.27
2022-09-14T12:17:40.826Z,0.90
2022-09-14T12:20:43.965Z,1.00
2022-09-14T12:23:42.207Z,1.30
2022-09-14T12:26:32.740Z,1.10
2022-09-14T12:29:33.630Z,1.40
2022-09-14T12:32:38.889Z,1.20
2022-09-14T12:35:47.309Z,1.07
2022-09-14T12:38:42.378Z,1.03
2022-09-14T12:42:11.441Z,1.13
2022-09-14T12:44:59.302Z,1.13
2022-09-14T12:47:54.841Z,0.77
2022-09-14T12:50:42.302Z,1.03
2022-09-14T12:53:33.075Z,0.90
2022-09-14T12:56:26.400Z,0.90
2022-09-14T12:59:22.606Z,1.50
2022-09-14T13:02:39.455Z,1.30
2022-09-14T13:05:28.987Z,1.00
2022-09-14T13:08:21.804Z,1.13
2022-09-14T13:11:08.349Z,1.20
2022-09-14T13:13:54.889Z,1.13
2022-09-14T13:16:44.650Z,1.50
2022-09-14T13:19:35.029Z,1.17
2022-09-14T13:22:24.091Z,1.57
2022-09-14T13:25:27.953Z,1.17
2022-09-14T13:28:16.287Z,1.10
2022-09-14T13:31:03.832Z,1.50
2022-09-14T13:33:52.831Z,1.17
2022-09-14T13:36:43.862Z,1.20
2022-09-14T13:39:33.020Z,1.10
2022-09-14T13:42:19.602Z,1.60
2022-09-14T13:45:07.949Z,1.20
2022-09-14T13:47:55.438Z,0.97
2022-09-14T13:50:45.056Z,1.10
2022-09-14T13:53:41.531Z,1.20
2022-09-14T13:56:31.310Z,1.00
2022-09-14T13:59:21.574Z,1.20
2022-09-14T14:02:14.425Z,1.70
2022-09-14T14:05:01.288Z,1.00
2022-09-14T14:07:47.951Z,1.57
2022-09-14T14:10:39.885Z,1.47
2022-09-14T14:13:27.431Z,1.17
2022-09-14T14:16:19.371Z,1.57
2022-09-14T14:19:05.876Z,1.07
2022-09-14T14:21:54.753Z,1.30
2022-09-14T14:25:09.053Z,1.50
2022-09-14T14:27:50.282Z,1.57
2022-09-14T14:30:40.340Z,1.20
2022-09-14T14:33:27.390Z,1.10
2022-09-14T14:36:14.682Z,1.30
2022-09-14T14:39:01.248Z,1.47
2022-09-14T14:41:48.695Z,1.10
2022-09-14T14:44:36.459Z,1.50
2022-09-14T14:47:23.932Z,1.63
2022-09-14T14:50:15.494Z,1.13
2022-09-14T14:53:02.567Z,1.23
2022-09-14T14:55:49.349Z,1.37
2022-09-14T14:58:43.849Z,1.43
2022-09-14T15:01:31.907Z,1.23
2022-09-14T15:04:18.616Z,1.40
2022-09-14T15:07:05.284Z,1.10
2022-09-14T15:09:51.691Z,1.50
2022-09-14T15:12:38.273Z,1.50
2022-09-14T15:15:27.397Z,1.60
2022-09-14T15:18:15.191Z,1.60
2022-09-14T15:21:01.553Z,1.57
2022-09-14T15:23:49.473Z,1.30
2022-09-14T15:26:36.915Z,1.43
2022-09-14T15:29:23.337Z,1.63
2022-09-14T15:32:09.784Z,1.40
2022-09-14T15:34:58.017Z,2.03
2022-09-14T15:37:44.508Z,1.30
2022-09-14T15:40:30.890Z,1.67
2022-09-14T15:43:17.717Z,1.40
2022-09-14T15:46:04.473Z,1.53
2022-09-14T15:48:50.887Z,1.20
2022-09-14T15:51:38.573Z,2.23
2022-09-14T15:54:26.871Z,1.20
2022-09-14T15:57:14.018Z,1.30
2022-09-14T16:00:00.686Z,1.57
2022-09-14T16:02:50.231Z,1.20
2022-09-14T16:05:38.640Z,1.70
2022-09-14T16:08:26.404Z,1.00
2022-09-14T16:11:12.653Z,1.30
2022-09-14T16:13:59.106Z,1.33
2022-09-14T16:16:45.721Z,1.63
2022-09-14T16:19:33.281Z,1.50
2022-09-14T16:22:20.229Z,1.50
2022-09-14T16:25:08.524Z,1.30
2022-09-14T16:27:54.927Z,1.40
2022-09-14T16:30:41.440Z,1.57
2022-09-14T16:33:28.043Z,1.40
2022-09-14T16:36:16.564Z,1.53
2022-09-14T16:39:05.307Z,1.90
2022-09-14T16:41:55.729Z,1.70
2022-09-14T16:44:43.030Z,1.90
2022-09-14T16:47:29.819Z,1.63
2022-09-14T16:50:16.216Z,1.60
2022-09-14T16:53:02.572Z,1.80
2022-09-14T16:55:49.153Z,2.37
2022-09-14T16:58:38.717Z,1.50
2022-09-14T17:01:26.625Z,1.40
2022-09-14T17:04:21.516Z,1.40
2022-09-14T17:07:08.293Z,1.80
2022-09-14T17:09:54.813Z,1.60
2022-09-14T17:12:41.197Z,1.63
2022-09-14T17:15:28.987Z,1.50
2022-09-14T17:18:15.739Z,1.33
2022-09-14T17:21:04.043Z,1.50
2022-09-14T17:23:51.029Z,1.60
2022-09-14T17:26:38.520Z,1.90
2022-09-14T17:29:25.019Z,2.40
2022-09-14T17:32:15.061Z,1.23
2022-09-14T17:35:01.975Z,1.90
2022-09-14T17:37:48.691Z,1.80
2022-09-14T17:40:34.965Z,1.83
2022-09-14T17:43:21.835Z,1.77
2022-09-14T17:46:11.193Z,1.50
2022-09-14T17:49:00.925Z,1.70
2022-09-14T17:51:48.212Z,1.80
2022-09-14T17:54:34.525Z,1.77
2022-09-14T17:57:21.092Z,1.70
2022-09-14T18:00:08.579Z,1.93
2022-09-14T18:02:55.211Z,2.27
2022-09-14T18:05:43.331Z,1.67
2022-09-14T18:08:30.037Z,1.97
2022-09-14T18:11:18.727Z,1.67
2022-09-14T18:14:06.484Z,1.63
2022-09-14T18:16:52.847Z,1.40
2022-09-14T18:19:39.263Z,1.70
2022-09-14T18:22:27.360Z,1.53
2022-09-14T18:25:13.746Z,1.50
2022-09-14T18:28:00.119Z,2.03
2022-09-14T18:30:46.503Z,1.20
2022-09-14T18:33:33.242Z,1.30
2022-09-14T18:36:20.792Z,1.30
2022-09-14T18:39:08.399Z,1.63
2022-09-14T18:41:56.271Z,1.63
2022-09-14T18:44:42.749Z,1.57
2022-09-14T18:47:29.745Z,2.07
2022-09-14T18:50:16.262Z,1.43
2022-09-14T18:53:03.116Z,2.00
2022-09-14T18:55:50.798Z,1.90
2022-09-14T18:58:38.506Z,2.27
2022-09-14T19:01:25.363Z,2.50
2022-09-14T19:04:12.696Z,2.47
2022-09-14T19:07:00.134Z,2.23
2022-09-14T19:09:46.669Z,1.80
2022-09-14T19:12:34.911Z,2.40
2022-09-14T19:15:21.202Z,1.63
2022-09-14T19:18:07.922Z,2.00
2022-09-14T19:21:06.237Z,2.63
2022-09-14T19:24:00.402Z,2.30
2022-09-14T19:26:48.721Z,2.10
2022-09-14T19:29:36.447Z,1.90
2022-09-14T19:32:23.335Z,2.20
2022-09-14T19:35:10.644Z,2.30
2022-09-14T19:37:57.334Z,2.50
2022-09-14T19:40:51.900Z,2.30
2022-09-14T19:43:39.113Z,2.73
2022-09-14T19:46:27.801Z,2.00
2022-09-14T19:49:16.281Z,2.40
2022-09-14T19:52:03.349Z,2.50
2022-09-14T19:54:49.847Z,2.83
2022-09-14T19:57:37.533Z,2.60
2022-09-14T20:00:23.773Z,3.10
2022-09-14T20:03:11.645Z,2.87
2022-09-14T20:06:02.505Z,2.93
2022-09-14T20:08:49.671Z,2.70
2022-09-14T20:11:38.248Z,2.80
2022-09-14T20:14:26.551Z,3.40
2022-09-14T20:17:13.361Z,3.50
2022-09-14T20:20:01.056Z,3.43
2022-09-14T20:22:47.704Z,3.37
2022-09-14T20:25:34.716Z,3.50
2022-09-14T20:28:26.303Z,3.00
2022-09-14T20:31:14.265Z,3.30
2022-09-14T20:34:01.967Z,3.23
2022-09-14T20:36:50.652Z,3.10
2022-09-14T20:39:38.278Z,2.93
2022-09-14T20:42:25.184Z,2.53
2022-09-14T20:45:12.261Z,2.90
2022-09-14T20:47:58.684Z,2.70
2022-09-14T20:50:52.743Z,3.10
2022-09-14T20:53:42.161Z,2.67
2022-09-14T20:56:31.605Z,2.80
2022-09-14T20:59:19.484Z,2.47
2022-09-14T21:02:06.212Z,2.50
2022-09-14T21:04:53.140Z,2.80
2022-09-14T21:07:39.513Z,2.90
2022-09-14T21:10:29.339Z,3.40
2022-09-14T21:13:16.401Z,3.20
2022-09-14T21:16:10.593Z,3.23
2022-09-14T21:18:59.085Z,3.53
2022-09-14T21:21:46.257Z,3.80
2022-09-14T21:24:35.036Z,3.27
2022-09-14T21:27:22.963Z,3.60
2022-09-14T21:30:10.740Z,3.80
2022-09-14T21:32:57.333Z,3.67
2022-09-14T21:35:43.609Z,3.83
2022-09-14T21:38:30.021Z,3.40
2022-09-14T21:41:16.521Z,3.77
2022-09-14T21:44:04.314Z,3.57
2022-09-14T21:46:50.687Z,3.27
2022-09-14T21:49:37.095Z,3.80
2022-09-14T21:52:23.359Z,3.97
2022-09-14T21:55:10.512Z,3.40
2022-09-14T21:57:57.260Z,3.67
2022-09-14T22:00:44.959Z,3.90
2022-09-14T22:03:31.686Z,3.93
2022-09-14T22:06:19.836Z,3.80
2022-09-14T22:09:06.407Z,4.20
2022-09-14T22:11:53.185Z,3.83
2022-09-14T22:14:39.519Z,4.17
2022-09-14T22:17:29.680Z,4.27
2022-09-14T22:20:16.601Z,4.90
2022-09-14T22:23:03.358Z,4.73
2022-09-14T22:25:49.661Z,4.00
2022-09-14T22:28:36.255Z,4.87
2022-09-14T22:31:24.176Z,4.53
2022-09-14T22:34:13.431Z,4.90
2022-09-14T22:37:00.419Z,5.00
2022-09-14T22:39:47.931Z,4.53
2022-09-14T22:42:36.467Z,4.50
2022-09-14T22:45:23.211Z,5.67
2022-09-14T22:48:09.716Z,4.80
2022-09-14T22:50:58.889Z,4.97
2022-09-14T22:53:45.456Z,5.00
2022-09-14T22:56:33.889Z,5.17
2022-09-14T22:59:20.669Z,5.20
2022-09-14T23:02:07.145Z,5.27
2022-09-14T23:04:53.545Z,5.10
2022-09-14T23:07:41.273Z,4.60
2022-09-14T23:10:27.503Z,4.80
2022-09-14T23:13:14.010Z,4.67
2022-09-14T23:16:01.172Z,5.10
2022-09-14T23:18:52.058Z,4.60
2022-09-14T23:21:38.847Z,4.80
2022-09-14T23:24:26.598Z,5.23
2022-09-14T23:27:13.393Z,4.93
2022-09-14T23:29:59.821Z,5.73
2022-09-14T23:32:46.317Z,5.00
2022-09-14T23:35:35.795Z,5.77
2022-09-14T23:38:24.767Z,5.40
2022-09-14T23:41:12.808Z,5.23
2022-09-14T23:43:59.532Z,5.80
2022-09-14T23:46:45.879Z,5.70
2022-09-14T23:49:32.144Z,6.80
2022-09-14T23:52:18.596Z,5.63
2022-09-14T23:55:06.162Z,5.27
2022-09-14T23:57:53.871Z,5.27
